sensor_id;sensor_type;location;lat;lon;timestamp;temperature;humidity
9125;DHT22;4597;48.730;9.114;2022-12-29T00:01:47;9.00;99.90
9125;DHT22;4597;48.730;9.114;2022-12-29T00:04:14;9.00;99.90
9125;DHT22;4597;48.730;9.114;2022-12-29T00:06:40;9.10;99.90
9125;DHT22;4597;48.730;9.114;2022-12-29T00:09:06;9.10;99.90
9125;DHT22;4597;48.730;9.114;2022-12-29T00:11:31;9.10;99.90
9125;DHT22;4597;48.730;9.114;2022-12-29T00:13:57;9.10;99.90
9125;DHT22;4597;48.730;9.114;2022-12-29T00:16:43;9.10;99.90
9125;DHT22;4597;48.730;9.114;2022-12-29T00:19:09;9.20;99.90
9125;DHT22;4597;48.730;9.114;2022-12-29T00:21:55;9.30;99.90
9125;DHT22;4597;48.730;9.114;2022-12-29T00:24:39;9.30;99.90
9125;DHT22;4597;48.730;9.114;2022-12-29T00:27:23;9.30;99.90
9125;DHT22;4597;48.730;9.114;2022-12-29T00:30:12;9.30;99.90
9125;DHT22;4597;48.730;9.114;2022-12-29T00:32:56;9.40;99.90
9125;DHT22;4597;48.730;9.114;2022-12-29T00:35:54;9.30;99.90
9125;DHT22;4597;48.730;9.114;2022-12-29T00:38:22;9.40;99.90
9125;DHT22;4597;48.730;9.114;2022-12-29T00:41:07;9.40;99.90
9125;DHT22;4597;48.730;9.114;2022-12-29T00:43:51;9.40;99.90
9125;DHT22;4597;48.730;9.114;2022-12-29T00:46:33;9.40;99.90
9125;DHT22;4597;48.730;9.114;2022-12-29T00:48:59;9.40;99.90
9125;DHT22;4597;48.730;9.114;2022-12-29T00:51:43;9.40;99.90
9125;DHT22;4597;48.730;9.114;2022-12-29T00:54:09;9.40;99.90
9125;DHT22;4597;48.730;9.114;2022-12-29T00:56:34;9.40;99.90
9125;DHT22;4597;48.730;9.114;2022-12-29T00:59:05;9.50;99.90
9125;DHT22;4597;48.730;9.114;2022-12-29T01:01:31;9.50;99.90
9125;DHT22;4597;48.730;9.114;2022-12-29T01:03:56;9.60;99.90
9125;DHT22;4597;48.730;9.114;2022-12-29T01:06:22;9.60;99.90
9125;DHT22;4597;48.730;9.114;2022-12-29T01:08:48;9.60;99.90
9125;DHT22;4597;48.730;9.114;2022-12-29T01:11:33;9.60;99.90
9125;DHT22;4597;48.730;9.114;2022-12-29T01:13:59;9.60;99.90
9125;DHT22;4597;48.730;9.114;2022-12-29T01:16:24;9.70;99.90
9125;DHT22;4597;48.730;9.114;2022-12-29T01:18:50;9.70;99.90
9125;DHT22;4597;48.730;9.114;2022-12-29T01:21:15;9.70;99.90
9125;DHT22;4597;48.730;9.114;2022-12-29T01:23:41;9.70;99.90
9125;DHT22;4597;48.730;9.114;2022-12-29T01:26:11;9.70;99.90
9125;DHT22;4597;48.730;9.114;2022-12-29T01:28:36;9.70;99.90
9125;DHT22;4597;48.730;9.114;2022-12-29T01:31:05;9.80;99.90
9125;DHT22;4597;48.730;9.114;2022-12-29T01:33:31;9.70;99.90
9125;DHT22;4597;48.730;9.114;2022-12-29T01:36:04;9.80;99.90
9125;DHT22;4597;48.730;9.114;2022-12-29T01:38:31;9.80;99.90
9125;DHT22;4597;48.730;9.114;2022-12-29T01:40:57;9.90;99.90
9125;DHT22;4597;48.730;9.114;2022-12-29T01:43:43;9.80;99.90
9125;DHT22;4597;48.730;9.114;2022-12-29T01:46:22;9.70;99.90
9125;DHT22;4597;48.730;9.114;2022-12-29T01:51:27;9.60;99.90
9125;DHT22;4597;48.730;9.114;2022-12-29T01:53:55;9.50;99.90
9125;DHT22;4597;48.730;9.114;2022-12-29T01:56:21;9.50;99.90
9125;DHT22;4597;48.730;9.114;2022-12-29T01:58:50;9.40;99.90
9125;DHT22;4597;48.730;9.114;2022-12-29T02:01:19;9.40;99.90
9125;DHT22;4597;48.730;9.114;2022-12-29T02:03:45;9.30;99.90
9125;DHT22;4597;48.730;9.114;2022-12-29T02:06:17;9.30;99.90
9125;DHT22;4597;48.730;9.114;2022-12-29T02:08:46;9.30;99.90
9125;DHT22;4597;48.730;9.114;2022-12-29T02:11:12;9.40;99.90
9125;DHT22;4597;48.730;9.114;2022-12-29T02:13:38;9.30;99.90
9125;DHT22;4597;48.730;9.114;2022-12-29T02:18:46;9.30;99.90
9125;DHT22;4597;48.730;9.114;2022-12-29T02:27:05;9.20;99.90
9125;DHT22;4597;48.730;9.114;2022-12-29T02:29:52;9.20;99.90
9125;DHT22;4597;48.730;9.114;2022-12-29T02:32:52;9.10;99.90
9125;DHT22;4597;48.730;9.114;2022-12-29T02:35:35;9.20;99.90
9125;DHT22;4597;48.730;9.114;2022-12-29T02:38:34;9.20;99.90
9125;DHT22;4597;48.730;9.114;2022-12-29T02:41:20;9.20;99.90
9125;DHT22;4597;48.730;9.114;2022-12-29T02:44:11;9.20;99.90
9125;DHT22;4597;48.730;9.114;2022-12-29T02:46:57;9.20;99.90
9125;DHT22;4597;48.730;9.114;2022-12-29T02:49:33;9.20;99.90
9125;DHT22;4597;48.730;9.114;2022-12-29T02:52:04;9.20;99.90
9125;DHT22;4597;48.730;9.114;2022-12-29T02:54:31;9.20;99.90
9125;DHT22;4597;48.730;9.114;2022-12-29T02:57:26;9.30;99.90
9125;DHT22;4597;48.730;9.114;2022-12-29T03:05:15;9.50;99.90
9125;DHT22;4597;48.730;9.114;2022-12-29T03:07:44;9.60;99.90
9125;DHT22;4597;48.730;9.114;2022-12-29T03:10:30;9.60;99.90
9125;DHT22;4597;48.730;9.114;2022-12-29T03:13:44;9.60;99.90
9125;DHT22;4597;48.730;9.114;2022-12-29T03:16:38;9.60;99.90
9125;DHT22;4597;48.730;9.114;2022-12-29T03:19:35;9.60;99.90
9125;DHT22;4597;48.730;9.114;2022-12-29T03:22:08;9.70;99.90
9125;DHT22;4597;48.730;9.114;2022-12-29T03:25:13;9.90;99.90
9125;DHT22;4597;48.730;9.114;2022-12-29T03:27:56;10.00;99.90
9125;DHT22;4597;48.730;9.114;2022-12-29T03:30:24;10.00;99.90
9125;DHT22;4597;48.730;9.114;2022-12-29T03:32:57;10.10;99.90
9125;DHT22;4597;48.730;9.114;2022-12-29T03:35:27;10.30;99.90
9125;DHT22;4597;48.730;9.114;2022-12-29T03:40:44;10.50;99.90
9125;DHT22;4597;48.730;9.114;2022-12-29T03:43:11;10.60;99.90
9125;DHT22;4597;48.730;9.114;2022-12-29T03:45:38;10.70;99.90
9125;DHT22;4597;48.730;9.114;2022-12-29T03:48:03;10.80;99.90
9125;DHT22;4597;48.730;9.114;2022-12-29T03:50:29;10.80;99.90
9125;DHT22;4597;48.730;9.114;2022-12-29T03:52:55;10.80;99.90
9125;DHT22;4597;48.730;9.114;2022-12-29T03:55:20;11.00;99.90
9125;DHT22;4597;48.730;9.114;2022-12-29T03:57:46;11.00;99.90
9125;DHT22;4597;48.730;9.114;2022-12-29T04:00:12;11.00;99.90
9125;DHT22;4597;48.730;9.114;2022-12-29T04:02:38;10.90;99.90
9125;DHT22;4597;48.730;9.114;2022-12-29T04:05:04;10.90;99.90
9125;DHT22;4597;48.730;9.114;2022-12-29T04:07:30;10.90;99.90
9125;DHT22;4597;48.730;9.114;2022-12-29T04:09:55;11.00;99.90
9125;DHT22;4597;48.730;9.114;2022-12-29T04:12:21;10.90;99.90
9125;DHT22;4597;48.730;9.114;2022-12-29T04:14:46;11.10;99.90
9125;DHT22;4597;48.730;9.114;2022-12-29T04:17:12;11.10;99.90
9125;DHT22;4597;48.730;9.114;2022-12-29T04:19:37;11.10;99.90
9125;DHT22;4597;48.730;9.114;2022-12-29T04:22:03;11.10;99.90
9125;DHT22;4597;48.730;9.114;2022-12-29T04:24:29;11.00;99.90
9125;DHT22;4597;48.730;9.114;2022-12-29T04:26:54;10.90;99.90
9125;DHT22;4597;48.730;9.114;2022-12-29T04:29:20;11.00;99.90
9125;DHT22;4597;48.730;9.114;2022-12-29T04:31:45;11.00;99.90
9125;DHT22;4597;48.730;9.114;2022-12-29T04:34:11;11.10;99.90
9125;DHT22;4597;48.730;9.114;2022-12-29T04:36:36;10.90;99.90
9125;DHT22;4597;48.730;9.114;2022-12-29T04:39:02;11.00;99.90
9125;DHT22;4597;48.730;9.114;2022-12-29T04:41:30;11.00;99.90
9125;DHT22;4597;48.730;9.114;2022-12-29T04:43:55;11.00;99.90
9125;DHT22;4597;48.730;9.114;2022-12-29T04:46:21;11.10;99.90
9125;DHT22;4597;48.730;9.114;2022-12-29T04:48:46;11.10;99.90
9125;DHT22;4597;48.730;9.114;2022-12-29T04:51:12;11.20;99.90
9125;DHT22;4597;48.730;9.114;2022-12-29T04:53:38;11.10;99.90
9125;DHT22;4597;48.730;9.114;2022-12-29T04:56:03;11.10;99.90
9125;DHT22;4597;48.730;9.114;2022-12-29T04:58:29;11.10;99.90
9125;DHT22;4597;48.730;9.114;2022-12-29T05:00:55;11.20;99.90
9125;DHT22;4597;48.730;9.114;2022-12-29T05:03:20;11.30;99.90
9125;DHT22;4597;48.730;9.114;2022-12-29T05:05:46;11.30;99.90
9125;DHT22;4597;48.730;9.114;2022-12-29T05:08:11;11.30;99.90
9125;DHT22;4597;48.730;9.114;2022-12-29T05:10:37;11.30;99.90
9125;DHT22;4597;48.730;9.114;2022-12-29T05:13:02;11.20;99.90
9125;DHT22;4597;48.730;9.114;2022-12-29T05:15:28;11.20;99.90
9125;DHT22;4597;48.730;9.114;2022-12-29T05:17:53;11.10;99.90
9125;DHT22;4597;48.730;9.114;2022-12-29T05:20:19;11.10;99.90
9125;DHT22;4597;48.730;9.114;2022-12-29T05:22:45;11.10;99.90
9125;DHT22;4597;48.730;9.114;2022-12-29T05:25:10;11.10;99.90
9125;DHT22;4597;48.730;9.114;2022-12-29T05:27:36;11.10;99.90
9125;DHT22;4597;48.730;9.114;2022-12-29T05:30:01;11.10;99.90
9125;DHT22;4597;48.730;9.114;2022-12-29T05:32:27;11.20;99.90
9125;DHT22;4597;48.730;9.114;2022-12-29T05:34:52;11.20;99.90
9125;DHT22;4597;48.730;9.114;2022-12-29T05:37:18;11.30;99.90
9125;DHT22;4597;48.730;9.114;2022-12-29T05:39:43;11.30;99.90
9125;DHT22;4597;48.730;9.114;2022-12-29T05:42:09;11.40;99.90
9125;DHT22;4597;48.730;9.114;2022-12-29T05:44:34;11.40;99.90
9125;DHT22;4597;48.730;9.114;2022-12-29T05:47:00;11.50;99.90
9125;DHT22;4597;48.730;9.114;2022-12-29T05:49:26;11.40;99.90
9125;DHT22;4597;48.730;9.114;2022-12-29T05:51:51;11.50;99.90
9125;DHT22;4597;48.730;9.114;2022-12-29T05:54:17;11.40;99.90
9125;DHT22;4597;48.730;9.114;2022-12-29T05:56:42;11.40;99.90
9125;DHT22;4597;48.730;9.114;2022-12-29T05:59:08;11.40;99.90
9125;DHT22;4597;48.730;9.114;2022-12-29T06:01:33;11.40;99.90
9125;DHT22;4597;48.730;9.114;2022-12-29T06:03:59;11.40;99.90
9125;DHT22;4597;48.730;9.114;2022-12-29T06:06:25;11.30;99.90
9125;DHT22;4597;48.730;9.114;2022-12-29T06:08:50;11.30;99.90
9125;DHT22;4597;48.730;9.114;2022-12-29T06:11:16;11.30;99.90
9125;DHT22;4597;48.730;9.114;2022-12-29T06:13:41;11.30;99.90
9125;DHT22;4597;48.730;9.114;2022-12-29T06:16:07;11.30;99.90
9125;DHT22;4597;48.730;9.114;2022-12-29T06:18:33;11.30;99.90
9125;DHT22;4597;48.730;9.114;2022-12-29T06:21:03;11.30;99.90
9125;DHT22;4597;48.730;9.114;2022-12-29T06:23:29;11.20;99.90
9125;DHT22;4597;48.730;9.114;2022-12-29T06:25:55;11.30;99.90
9125;DHT22;4597;48.730;9.114;2022-12-29T06:28:20;11.30;99.90
9125;DHT22;4597;48.730;9.114;2022-12-29T06:30:46;11.30;99.90
9125;DHT22;4597;48.730;9.114;2022-12-29T06:33:12;11.30;99.90
9125;DHT22;4597;48.730;9.114;2022-12-29T06:35:38;11.30;99.90
9125;DHT22;4597;48.730;9.114;2022-12-29T06:38:03;11.30;99.90
9125;DHT22;4597;48.730;9.114;2022-12-29T06:40:29;11.30;99.90
9125;DHT22;4597;48.730;9.114;2022-12-29T06:42:55;11.20;99.90
9125;DHT22;4597;48.730;9.114;2022-12-29T06:45:20;11.30;99.90
9125;DHT22;4597;48.730;9.114;2022-12-29T06:47:46;11.30;99.90
9125;DHT22;4597;48.730;9.114;2022-12-29T06:50:11;11.30;99.90
9125;DHT22;4597;48.730;9.114;2022-12-29T06:52:37;11.30;99.90
9125;DHT22;4597;48.730;9.114;2022-12-29T06:55:03;11.40;99.90
9125;DHT22;4597;48.730;9.114;2022-12-29T06:57:28;11.30;99.90
9125;DHT22;4597;48.730;9.114;2022-12-29T06:59:54;11.40;99.90
9125;DHT22;4597;48.730;9.114;2022-12-29T07:02:23;11.30;99.90
9125;DHT22;4597;48.730;9.114;2022-12-29T07:04:53;11.30;99.90
9125;DHT22;4597;48.730;9.114;2022-12-29T07:07:19;11.20;99.90
9125;DHT22;4597;48.730;9.114;2022-12-29T07:09:45;11.20;99.90
9125;DHT22;4597;48.730;9.114;2022-12-29T07:12:11;11.20;99.90
9125;DHT22;4597;48.730;9.114;2022-12-29T07:14:36;11.30;99.90
9125;DHT22;4597;48.730;9.114;2022-12-29T07:17:02;11.30;99.90
9125;DHT22;4597;48.730;9.114;2022-12-29T07:19:30;11.40;99.90
9125;DHT22;4597;48.730;9.114;2022-12-29T07:21:56;11.40;99.90
9125;DHT22;4597;48.730;9.114;2022-12-29T07:24:21;11.40;99.90
9125;DHT22;4597;48.730;9.114;2022-12-29T07:26:47;11.40;99.90
9125;DHT22;4597;48.730;9.114;2022-12-29T07:29:12;11.40;99.90
9125;DHT22;4597;48.730;9.114;2022-12-29T07:31:38;11.50;99.90
9125;DHT22;4597;48.730;9.114;2022-12-29T07:34:03;11.60;99.90
9125;DHT22;4597;48.730;9.114;2022-12-29T07:36:29;11.60;99.90
9125;DHT22;4597;48.730;9.114;2022-12-29T07:38:54;11.50;99.90
9125;DHT22;4597;48.730;9.114;2022-12-29T07:41:20;11.60;99.90
9125;DHT22;4597;48.730;9.114;2022-12-29T07:43:48;11.60;99.90
9125;DHT22;4597;48.730;9.114;2022-12-29T07:46:14;11.60;99.90
9125;DHT22;4597;48.730;9.114;2022-12-29T07:48:40;11.60;99.90
9125;DHT22;4597;48.730;9.114;2022-12-29T07:51:05;11.70;99.90
9125;DHT22;4597;48.730;9.114;2022-12-29T07:53:31;11.70;99.90
9125;DHT22;4597;48.730;9.114;2022-12-29T07:55:57;11.70;99.90
9125;DHT22;4597;48.730;9.114;2022-12-29T07:58:22;11.70;99.90
9125;DHT22;4597;48.730;9.114;2022-12-29T08:00:53;11.70;99.90
9125;DHT22;4597;48.730;9.114;2022-12-29T08:03:18;11.70;99.90
9125;DHT22;4597;48.730;9.114;2022-12-29T08:05:44;11.70;99.90
9125;DHT22;4597;48.730;9.114;2022-12-29T08:08:09;11.80;99.90
9125;DHT22;4597;48.730;9.114;2022-12-29T08:10:35;11.80;99.90
9125;DHT22;4597;48.730;9.114;2022-12-29T08:13:00;11.80;99.90
9125;DHT22;4597;48.730;9.114;2022-12-29T08:15:26;11.80;99.90
9125;DHT22;4597;48.730;9.114;2022-12-29T08:17:51;11.80;99.90
9125;DHT22;4597;48.730;9.114;2022-12-29T08:20:17;11.90;99.90
9125;DHT22;4597;48.730;9.114;2022-12-29T08:22:42;11.90;99.90
9125;DHT22;4597;48.730;9.114;2022-12-29T08:25:08;11.90;99.90
9125;DHT22;4597;48.730;9.114;2022-12-29T08:27:33;11.90;99.90
9125;DHT22;4597;48.730;9.114;2022-12-29T08:29:59;11.90;99.90
9125;DHT22;4597;48.730;9.114;2022-12-29T08:32:26;11.90;99.90
9125;DHT22;4597;48.730;9.114;2022-12-29T08:34:53;11.90;99.90
9125;DHT22;4597;48.730;9.114;2022-12-29T08:37:19;11.80;99.90
9125;DHT22;4597;48.730;9.114;2022-12-29T08:39:44;11.80;99.90
9125;DHT22;4597;48.730;9.114;2022-12-29T08:42:09;11.80;99.90
9125;DHT22;4597;48.730;9.114;2022-12-29T08:44:35;12.00;99.90
9125;DHT22;4597;48.730;9.114;2022-12-29T08:47:00;12.00;99.90
9125;DHT22;4597;48.730;9.114;2022-12-29T08:49:26;12.10;99.90
9125;DHT22;4597;48.730;9.114;2022-12-29T08:51:52;12.00;99.90
9125;DHT22;4597;48.730;9.114;2022-12-29T08:54:17;12.10;99.90
9125;DHT22;4597;48.730;9.114;2022-12-29T08:56:43;12.10;99.90
9125;DHT22;4597;48.730;9.114;2022-12-29T08:59:08;12.10;99.90
9125;DHT22;4597;48.730;9.114;2022-12-29T09:01:34;12.20;99.90
9125;DHT22;4597;48.730;9.114;2022-12-29T09:04:01;12.20;99.90
9125;DHT22;4597;48.730;9.114;2022-12-29T09:06:27;12.30;99.90
9125;DHT22;4597;48.730;9.114;2022-12-29T09:08:54;12.30;99.90
9125;DHT22;4597;48.730;9.114;2022-12-29T09:11:21;12.30;99.90
9125;DHT22;4597;48.730;9.114;2022-12-29T09:13:48;12.30;99.90
9125;DHT22;4597;48.730;9.114;2022-12-29T09:16:14;12.30;99.90
9125;DHT22;4597;48.730;9.114;2022-12-29T09:18:40;12.30;99.90
9125;DHT22;4597;48.730;9.114;2022-12-29T09:21:06;12.50;99.90
9125;DHT22;4597;48.730;9.114;2022-12-29T09:23:33;12.50;99.90
9125;DHT22;4597;48.730;9.114;2022-12-29T09:25:59;12.40;99.90
9125;DHT22;4597;48.730;9.114;2022-12-29T09:28:24;12.50;99.90
9125;DHT22;4597;48.730;9.114;2022-12-29T09:30:51;12.60;99.90
9125;DHT22;4597;48.730;9.114;2022-12-29T09:33:17;12.60;99.90
9125;DHT22;4597;48.730;9.114;2022-12-29T09:35:43;12.60;99.90
9125;DHT22;4597;48.730;9.114;2022-12-29T09:38:09;12.80;99.90
9125;DHT22;4597;48.730;9.114;2022-12-29T09:40:36;12.80;99.90
9125;DHT22;4597;48.730;9.114;2022-12-29T09:45:44;12.90;99.90
9125;DHT22;4597;48.730;9.114;2022-12-29T09:48:27;12.90;99.90
9125;DHT22;4597;48.730;9.114;2022-12-29T09:50:57;13.00;99.90
9125;DHT22;4597;48.730;9.114;2022-12-29T09:55:55;13.00;99.90
9125;DHT22;4597;48.730;9.114;2022-12-29T09:58:34;13.00;99.90
9125;DHT22;4597;48.730;9.114;2022-12-29T10:01:30;13.10;99.90
9125;DHT22;4597;48.730;9.114;2022-12-29T10:03:58;13.20;99.90
9125;DHT22;4597;48.730;9.114;2022-12-29T10:14:52;13.40;99.90
9125;DHT22;4597;48.730;9.114;2022-12-29T10:17:42;13.50;99.90
9125;DHT22;4597;48.730;9.114;2022-12-29T10:20:31;13.70;99.90
9125;DHT22;4597;48.730;9.114;2022-12-29T10:23:31;13.80;99.90
9125;DHT22;4597;48.730;9.114;2022-12-29T10:25:59;13.90;99.90
9125;DHT22;4597;48.730;9.114;2022-12-29T10:28:40;13.90;99.90
9125;DHT22;4597;48.730;9.114;2022-12-29T10:31:20;13.80;99.90
9125;DHT22;4597;48.730;9.114;2022-12-29T10:33:50;13.90;99.90
9125;DHT22;4597;48.730;9.114;2022-12-29T10:36:21;13.90;99.90
9125;DHT22;4597;48.730;9.114;2022-12-29T10:41:35;13.90;99.90
9125;DHT22;4597;48.730;9.114;2022-12-29T10:44:02;13.90;99.90
9125;DHT22;4597;48.730;9.114;2022-12-29T10:46:30;13.90;99.90
9125;DHT22;4597;48.730;9.114;2022-12-29T10:48:58;13.90;99.90
9125;DHT22;4597;48.730;9.114;2022-12-29T10:51:30;13.90;99.90
9125;DHT22;4597;48.730;9.114;2022-12-29T10:54:02;14.00;99.90
9125;DHT22;4597;48.730;9.114;2022-12-29T10:56:39;14.00;99.90
9125;DHT22;4597;48.730;9.114;2022-12-29T10:59:21;14.10;99.90
9125;DHT22;4597;48.730;9.114;2022-12-29T11:07:17;14.20;99.90
9125;DHT22;4597;48.730;9.114;2022-12-29T11:09:44;14.20;99.90
9125;DHT22;4597;48.730;9.114;2022-12-29T11:12:22;14.20;99.90
9125;DHT22;4597;48.730;9.114;2022-12-29T11:17:53;14.10;99.90
9125;DHT22;4597;48.730;9.114;2022-12-29T11:20:37;14.20;99.90
9125;DHT22;4597;48.730;9.114;2022-12-29T11:23:05;14.10;99.90
9125;DHT22;4597;48.730;9.114;2022-12-29T11:25:45;14.10;99.90
9125;DHT22;4597;48.730;9.114;2022-12-29T11:28:15;14.10;99.90
9125;DHT22;4597;48.730;9.114;2022-12-29T11:30:42;14.00;99.90
9125;DHT22;4597;48.730;9.114;2022-12-29T11:33:08;14.00;99.90
9125;DHT22;4597;48.730;9.114;2022-12-29T11:35:42;14.00;99.90
9125;DHT22;4597;48.730;9.114;2022-12-29T11:38:23;14.00;99.90
9125;DHT22;4597;48.730;9.114;2022-12-29T11:40:50;14.00;99.90
9125;DHT22;4597;48.730;9.114;2022-12-29T11:43:31;14.00;99.90
9125;DHT22;4597;48.730;9.114;2022-12-29T11:46:01;14.10;99.90
9125;DHT22;4597;48.730;9.114;2022-12-29T11:48:32;14.20;99.90
9125;DHT22;4597;48.730;9.114;2022-12-29T11:50:58;14.20;99.90
9125;DHT22;4597;48.730;9.114;2022-12-29T11:53:28;14.30;99.90
9125;DHT22;4597;48.730;9.114;2022-12-29T11:56:04;14.30;99.90
9125;DHT22;4597;48.730;9.114;2022-12-29T11:58:33;14.20;99.90
9125;DHT22;4597;48.730;9.114;2022-12-29T12:03:59;14.20;99.90
9125;DHT22;4597;48.730;9.114;2022-12-29T12:06:27;14.00;99.90
9125;DHT22;4597;48.730;9.114;2022-12-29T12:08:57;14.00;99.90
9125;DHT22;4597;48.730;9.114;2022-12-29T12:11:30;13.90;99.90
9125;DHT22;4597;48.730;9.114;2022-12-29T12:16:59;13.90;99.90
9125;DHT22;4597;48.730;9.114;2022-12-29T12:19:40;13.90;99.90
9125;DHT22;4597;48.730;9.114;2022-12-29T12:22:31;14.00;99.90
9125;DHT22;4597;48.730;9.114;2022-12-29T12:25:03;14.10;99.90
9125;DHT22;4597;48.730;9.114;2022-12-29T12:27:52;14.20;99.90
9125;DHT22;4597;48.730;9.114;2022-12-29T12:30:20;14.30;99.90
9125;DHT22;4597;48.730;9.114;2022-12-29T12:33:00;14.30;99.90
9125;DHT22;4597;48.730;9.114;2022-12-29T12:38:41;14.00;99.90
9125;DHT22;4597;48.730;9.114;2022-12-29T12:43:55;14.00;99.90
9125;DHT22;4597;48.730;9.114;2022-12-29T12:52:11;13.90;99.90
9125;DHT22;4597;48.730;9.114;2022-12-29T13:06:46;14.00;99.90
9125;DHT22;4597;48.730;9.114;2022-12-29T13:20:52;14.30;99.90
9125;DHT22;4597;48.730;9.114;2022-12-29T13:23:19;14.40;99.90
9125;DHT22;4597;48.730;9.114;2022-12-29T13:37:27;14.00;99.90
9125;DHT22;4597;48.730;9.114;2022-12-29T13:39:58;13.90;99.90
9125;DHT22;4597;48.730;9.114;2022-12-29T13:42:26;13.90;99.90
9125;DHT22;4597;48.730;9.114;2022-12-29T13:45:04;13.90;99.90
9125;DHT22;4597;48.730;9.114;2022-12-29T13:47:40;13.90;99.90
9125;DHT22;4597;48.730;9.114;2022-12-29T13:50:22;13.90;99.90
9125;DHT22;4597;48.730;9.114;2022-12-29T13:53:41;13.90;99.90
9125;DHT22;4597;48.730;9.114;2022-12-29T13:56:07;13.90;99.90
9125;DHT22;4597;48.730;9.114;2022-12-29T13:59:19;13.90;99.90
9125;DHT22;4597;48.730;9.114;2022-12-29T14:01:58;13.70;99.90
9125;DHT22;4597;48.730;9.114;2022-12-29T14:04:29;13.60;99.90
9125;DHT22;4597;48.730;9.114;2022-12-29T14:07:21;13.60;99.90
9125;DHT22;4597;48.730;9.114;2022-12-29T14:09:55;13.40;99.90
9125;DHT22;4597;48.730;9.114;2022-12-29T14:12:42;13.40;99.90
9125;DHT22;4597;48.730;9.114;2022-12-29T14:17:38;13.30;99.90
9125;DHT22;4597;48.730;9.114;2022-12-29T14:20:15;13.30;99.90
9125;DHT22;4597;48.730;9.114;2022-12-29T14:23:00;13.30;99.90
9125;DHT22;4597;48.730;9.114;2022-12-29T14:28:46;13.20;99.90
9125;DHT22;4597;48.730;9.114;2022-12-29T14:42:00;13.10;99.90
9125;DHT22;4597;48.730;9.114;2022-12-29T14:44:28;12.90;99.90
9125;DHT22;4597;48.730;9.114;2022-12-29T14:49:21;12.80;99.90
9125;DHT22;4597;48.730;9.114;2022-12-29T14:51:53;12.60;99.90
9125;DHT22;4597;48.730;9.114;2022-12-29T14:57:07;12.40;99.90
9125;DHT22;4597;48.730;9.114;2022-12-29T14:59:34;12.40;99.90
9125;DHT22;4597;48.730;9.114;2022-12-29T15:02:04;12.30;99.90
9125;DHT22;4597;48.730;9.114;2022-12-29T15:04:32;12.30;99.90
9125;DHT22;4597;48.730;9.114;2022-12-29T15:06:59;12.20;99.90
9125;DHT22;4597;48.730;9.114;2022-12-29T15:09:40;12.30;99.90
9125;DHT22;4597;48.730;9.114;2022-12-29T15:12:35;12.10;99.90
9125;DHT22;4597;48.730;9.114;2022-12-29T15:15:01;12.00;99.90
9125;DHT22;4597;48.730;9.114;2022-12-29T15:17:29;11.90;99.90
9125;DHT22;4597;48.730;9.114;2022-12-29T15:19:57;11.70;99.90
9125;DHT22;4597;48.730;9.114;2022-12-29T15:22:23;11.50;99.90
9125;DHT22;4597;48.730;9.114;2022-12-29T15:24:53;11.30;99.90
9125;DHT22;4597;48.730;9.114;2022-12-29T15:27:24;10.90;99.90
9125;DHT22;4597;48.730;9.114;2022-12-29T15:29:57;10.70;99.90
9125;DHT22;4597;48.730;9.114;2022-12-29T15:32:26;10.50;99.90
9125;DHT22;4597;48.730;9.114;2022-12-29T15:34:53;10.50;99.90
9125;DHT22;4597;48.730;9.114;2022-12-29T15:39:47;10.40;99.90
9125;DHT22;4597;48.730;9.114;2022-12-29T15:45:05;10.40;99.90
9125;DHT22;4597;48.730;9.114;2022-12-29T15:47:31;10.40;99.90
9125;DHT22;4597;48.730;9.114;2022-12-29T15:50:32;10.40;99.90
9125;DHT22;4597;48.730;9.114;2022-12-29T15:52:59;10.40;99.90
9125;DHT22;4597;48.730;9.114;2022-12-29T15:55:44;10.40;99.90
9125;DHT22;4597;48.730;9.114;2022-12-29T15:58:21;10.40;99.90
9125;DHT22;4597;48.730;9.114;2022-12-29T16:00:52;10.40;99.90
9125;DHT22;4597;48.730;9.114;2022-12-29T16:03:23;10.50;99.90
9125;DHT22;4597;48.730;9.114;2022-12-29T16:05:52;10.40;99.90
9125;DHT22;4597;48.730;9.114;2022-12-29T16:08:31;10.40;99.90
9125;DHT22;4597;48.730;9.114;2022-12-29T16:11:06;10.40;99.90
9125;DHT22;4597;48.730;9.114;2022-12-29T16:13:35;10.40;99.90
9125;DHT22;4597;48.730;9.114;2022-12-29T16:16:12;10.30;99.90
9125;DHT22;4597;48.730;9.114;2022-12-29T16:18:39;10.30;99.90
9125;DHT22;4597;48.730;9.114;2022-12-29T16:21:11;10.30;99.90
9125;DHT22;4597;48.730;9.114;2022-12-29T16:23:39;10.30;99.90
9125;DHT22;4597;48.730;9.114;2022-12-29T16:26:15;10.30;99.90
9125;DHT22;4597;48.730;9.114;2022-12-29T16:28:42;10.40;99.90
9125;DHT22;4597;48.730;9.114;2022-12-29T16:32:28;10.40;99.90
9125;DHT22;4597;48.730;9.114;2022-12-29T16:37:32;10.40;99.90
9125;DHT22;4597;48.730;9.114;2022-12-29T16:42:49;10.40;99.90
9125;DHT22;4597;48.730;9.114;2022-12-29T16:50:30;10.30;99.90
9125;DHT22;4597;48.730;9.114;2022-12-29T16:52:55;10.30;99.90
9125;DHT22;4597;48.730;9.114;2022-12-29T16:55:21;10.40;99.90
9125;DHT22;4597;48.730;9.114;2022-12-29T16:57:48;10.30;99.90
9125;DHT22;4597;48.730;9.114;2022-12-29T17:00:19;10.30;99.90
9125;DHT22;4597;48.730;9.114;2022-12-29T17:02:45;10.30;99.90
9125;DHT22;4597;48.730;9.114;2022-12-29T17:05:13;10.20;99.90
9125;DHT22;4597;48.730;9.114;2022-12-29T17:07:39;10.20;99.90
9125;DHT22;4597;48.730;9.114;2022-12-29T17:10:05;10.10;99.90
9125;DHT22;4597;48.730;9.114;2022-12-29T17:12:33;10.10;99.90
9125;DHT22;4597;48.730;9.114;2022-12-29T17:15:01;10.10;99.90
9125;DHT22;4597;48.730;9.114;2022-12-29T17:17:40;10.10;99.90
9125;DHT22;4597;48.730;9.114;2022-12-29T17:20:19;10.20;99.90
9125;DHT22;4597;48.730;9.114;2022-12-29T17:22:45;10.30;99.90
9125;DHT22;4597;48.730;9.114;2022-12-29T17:25:12;10.20;99.90
9125;DHT22;4597;48.730;9.114;2022-12-29T17:28:00;10.30;99.90
9125;DHT22;4597;48.730;9.114;2022-12-29T17:30:28;10.10;99.90
9125;DHT22;4597;48.730;9.114;2022-12-29T17:32:57;10.20;99.90
9125;DHT22;4597;48.730;9.114;2022-12-29T17:35:24;10.10;99.90
9125;DHT22;4597;48.730;9.114;2022-12-29T17:37:50;10.10;99.90
9125;DHT22;4597;48.730;9.114;2022-12-29T17:40:21;10.10;99.90
9125;DHT22;4597;48.730;9.114;2022-12-29T17:42:48;10.20;99.90
9125;DHT22;4597;48.730;9.114;2022-12-29T17:45:21;10.10;99.90
9125;DHT22;4597;48.730;9.114;2022-12-29T17:47:47;10.10;99.90
9125;DHT22;4597;48.730;9.114;2022-12-29T17:50:15;10.20;99.90
9125;DHT22;4597;48.730;9.114;2022-12-29T17:52:42;10.10;99.90
9125;DHT22;4597;48.730;9.114;2022-12-29T17:55:15;10.20;99.90
9125;DHT22;4597;48.730;9.114;2022-12-29T17:57:41;10.10;99.90
9125;DHT22;4597;48.730;9.114;2022-12-29T18:00:18;10.20;99.90
9125;DHT22;4597;48.730;9.114;2022-12-29T18:02:44;10.20;99.90
9125;DHT22;4597;48.730;9.114;2022-12-29T18:05:29;10.10;99.90
9125;DHT22;4597;48.730;9.114;2022-12-29T18:07:57;10.00;99.90
9125;DHT22;4597;48.730;9.114;2022-12-29T18:10:25;10.00;99.90
9125;DHT22;4597;48.730;9.114;2022-12-29T18:12:54;10.00;99.90
9125;DHT22;4597;48.730;9.114;2022-12-29T18:15:28;10.00;99.90
9125;DHT22;4597;48.730;9.114;2022-12-29T18:18:12;9.90;99.90
9125;DHT22;4597;48.730;9.114;2022-12-29T18:20:39;9.90;99.90
9125;DHT22;4597;48.730;9.114;2022-12-29T18:23:06;9.80;99.90
9125;DHT22;4597;48.730;9.114;2022-12-29T18:25:40;9.70;99.90
9125;DHT22;4597;48.730;9.114;2022-12-29T18:28:06;9.70;99.90
9125;DHT22;4597;48.730;9.114;2022-12-29T18:30:31;9.70;99.90
9125;DHT22;4597;48.730;9.114;2022-12-29T18:32:57;9.80;99.90
9125;DHT22;4597;48.730;9.114;2022-12-29T18:35:27;9.70;99.90
9125;DHT22;4597;48.730;9.114;2022-12-29T18:37:53;9.60;99.90
9125;DHT22;4597;48.730;9.114;2022-12-29T18:40:18;9.60;99.90
9125;DHT22;4597;48.730;9.114;2022-12-29T18:42:44;9.50;99.90